createdAt,value
2022-10-02T00:01:59.181Z,9.71
2022-10-02T00:04:32.716Z,9.70
2022-10-02T00:07:09.786Z,9.62
2022-10-02T00:09:54.745Z,9.75
2022-10-02T00:12:32.061Z,9.74
2022-10-02T00:15:29.262Z,9.76
2022-10-02T00:18:08.621Z,9.84
2022-10-02T00:21:10.567Z,9.88
2022-10-02T00:23:47.209Z,9.82
2022-10-02T00:26:24.441Z,9.71
2022-10-02T00:29:10.442Z,9.62
2022-10-02T00:31:59.150Z,9.67
2022-10-02T00:34:46.469Z,9.59
2022-10-02T00:38:01.332Z,9.68
2022-10-02T00:40:53.089Z,9.63
2022-10-02T00:43:35.239Z,9.61
2022-10-02T00:46:31.201Z,9.56
2022-10-02T00:49:25.635Z,9.54
2022-10-02T00:52:19.267Z,9.55
2022-10-02T00:55:17.300Z,9.63
2022-10-02T00:58:16.112Z,9.55
2022-10-02T01:01:10.128Z,9.52
2022-10-02T01:03:42.591Z,9.48
2022-10-02T01:06:10.279Z,9.53
2022-10-02T01:08:37.932Z,9.47
2022-10-02T01:11:05.696Z,9.55
2022-10-02T01:13:33.991Z,9.54
2022-10-02T01:16:11.495Z,9.51
2022-10-02T01:18:41.001Z,9.51
2022-10-02T01:21:38.896Z,9.53
2022-10-02T01:24:35.553Z,9.56
2022-10-02T01:27:04.771Z,9.56
2022-10-02T01:29:31.720Z,9.53
2022-10-02T01:31:58.342Z,9.56
2022-10-02T01:34:34.094Z,9.53
2022-10-02T01:37:14.658Z,9.55
2022-10-02T01:39:41.613Z,9.55
2022-10-02T01:42:19.721Z,9.54
2022-10-02T01:45:02.999Z,9.51
2022-10-02T01:48:08.907Z,9.45
2022-10-02T01:50:55.800Z,9.62
2022-10-02T01:53:50.285Z,9.54
2022-10-02T01:56:50.554Z,9.66
2022-10-02T01:59:28.584Z,9.65
2022-10-02T02:02:29.507Z,9.68
2022-10-02T02:05:08.301Z,9.84
2022-10-02T02:08:11.462Z,9.90
2022-10-02T02:11:04.256Z,9.97
2022-10-02T02:13:30.782Z,10.04
2022-10-02T02:16:10.858Z,10.10
2022-10-02T02:19:00.544Z,10.06
2022-10-02T02:21:37.557Z,10.10
2022-10-02T02:24:12.105Z,10.10
2022-10-02T02:26:39.463Z,10.11
2022-10-02T02:29:10.381Z,10.14
2022-10-02T02:31:45.585Z,10.19
2022-10-02T02:34:31.196Z,10.15
2022-10-02T02:37:03.144Z,10.14
2022-10-02T02:39:49.224Z,10.14
2022-10-02T02:42:27.150Z,10.16
2022-10-02T02:45:02.640Z,10.15
2022-10-02T02:47:56.514Z,10.12
2022-10-02T02:50:27.485Z,10.19
2022-10-02T02:53:25.212Z,10.22
2022-10-02T02:56:04.352Z,10.22
2022-10-02T02:58:43.041Z,10.20
2022-10-02T03:01:24.334Z,10.18
2022-10-02T03:03:53.659Z,10.15
2022-10-02T03:06:55.473Z,10.16
2022-10-02T03:09:33.565Z,10.15
2022-10-02T03:12:12.407Z,10.18
2022-10-02T03:15:08.316Z,10.22
2022-10-02T03:18:08.668Z,10.17
2022-10-02T03:20:48.412Z,10.18
2022-10-02T03:23:47.378Z,10.20
2022-10-02T03:26:44.436Z,10.21
2022-10-02T03:29:35.402Z,10.21
2022-10-02T03:32:03.549Z,10.21
2022-10-02T03:34:32.700Z,10.16
2022-10-02T03:36:59.847Z,10.23
2022-10-02T03:39:37.934Z,10.21
2022-10-02T03:42:04.581Z,10.21
2022-10-02T03:44:31.239Z,10.23
2022-10-02T03:47:03.508Z,10.16
2022-10-02T03:49:30.364Z,10.18
2022-10-02T03:51:57.181Z,10.21
2022-10-02T03:54:30.900Z,10.24
2022-10-02T03:57:07.588Z,10.28
2022-10-02T03:59:53.079Z,10.30
2022-10-02T04:02:23.504Z,10.25
2022-10-02T04:05:17.380Z,10.25
2022-10-02T04:07:46.945Z,10.28
2022-10-02T04:10:44.885Z,10.23
2022-10-02T04:13:19.516Z,10.24
2022-10-02T04:15:57.444Z,10.29
2022-10-02T04:18:59.310Z,10.26
2022-10-02T04:22:03.595Z,10.29
2022-10-02T04:24:45.630Z,10.29
2022-10-02T04:27:19.501Z,10.27
2022-10-02T04:29:53.641Z,10.30
2022-10-02T04:32:28.044Z,10.26
2022-10-02T04:34:54.789Z,10.27
2022-10-02T04:37:42.225Z,10.25
2022-10-02T04:40:30.490Z,10.21
2022-10-02T04:43:07.831Z,10.13
2022-10-02T04:45:34.542Z,10.15
2022-10-02T04:48:07.194Z,10.07
2022-10-02T04:51:09.644Z,10.05
2022-10-02T04:53:57.369Z,10.09
2022-10-02T04:56:50.046Z,10.05
2022-10-02T04:59:26.328Z,10.09
2022-10-02T05:01:59.211Z,10.03
2022-10-02T05:04:44.169Z,10.04
2022-10-02T05:07:25.950Z,9.94
2022-10-02T05:10:11.063Z,9.99
2022-10-02T05:13:08.813Z,10.01
2022-10-02T05:15:35.443Z,10.01
2022-10-02T05:18:40.739Z,9.96
2022-10-02T05:21:27.698Z,9.92
2022-10-02T05:24:10.893Z,9.95
2022-10-02T05:26:55.338Z,9.89
2022-10-02T05:29:27.989Z,9.86
2022-10-02T05:32:09.828Z,9.86
2022-10-02T05:35:20.424Z,9.80
2022-10-02T05:38:09.614Z,9.73
2022-10-02T05:40:42.623Z,9.81
2022-10-02T05:43:33.144Z,9.80
2022-10-02T05:46:03.592Z,9.87
2022-10-02T05:48:37.579Z,9.93
2022-10-02T05:51:14.251Z,9.88
2022-10-02T05:53:45.665Z,10.02
2022-10-02T05:56:23.663Z,10.13
2022-10-02T05:59:01.080Z,10.26
2022-10-02T06:01:30.038Z,10.40
2022-10-02T06:04:18.651Z,10.48
2022-10-02T06:06:48.197Z,10.60
2022-10-02T06:09:24.745Z,10.62
2022-10-02T06:12:07.630Z,10.77
2022-10-02T06:14:37.317Z,10.90
2022-10-02T06:17:10.059Z,10.90
2022-10-02T06:19:45.139Z,10.84
2022-10-02T06:22:30.187Z,10.80
2022-10-02T06:25:13.911Z,10.80
2022-10-02T06:27:53.860Z,10.78
2022-10-02T06:30:23.608Z,10.83
2022-10-02T06:33:02.102Z,11.08
2022-10-02T06:35:31.619Z,11.44
2022-10-02T06:38:27.313Z,11.56
2022-10-02T06:41:20.534Z,11.71
2022-10-02T06:43:58.336Z,11.58
2022-10-02T06:46:47.382Z,11.50
2022-10-02T06:49:29.761Z,11.23
2022-10-02T06:52:16.525Z,11.02
2022-10-02T06:54:55.288Z,10.93
2022-10-02T06:57:40.500Z,10.97
2022-10-02T07:00:12.303Z,11.10
2022-10-02T07:02:47.868Z,10.99
2022-10-02T07:05:42.458Z,10.88
2022-10-02T07:08:39.472Z,10.88
2022-10-02T07:11:33.823Z,10.89
2022-10-02T07:14:57.888Z,10.99
2022-10-02T07:17:36.710Z,11.01
2022-10-02T07:20:15.720Z,11.08
2022-10-02T07:23:33.707Z,11.12
2022-10-02T07:26:17.690Z,11.11
2022-10-02T07:28:50.505Z,11.21
2022-10-02T07:31:54.874Z,11.19
2022-10-02T07:34:32.484Z,11.35
2022-10-02T07:37:07.214Z,11.53
2022-10-02T07:39:52.161Z,11.50
2022-10-02T07:42:41.946Z,11.46
2022-10-02T07:45:26.611Z,11.52
2022-10-02T07:48:41.208Z,11.58
2022-10-02T07:51:36.854Z,11.50
2022-10-02T07:54:38.533Z,11.57
2022-10-02T07:57:19.464Z,11.55
2022-10-02T07:59:46.926Z,11.61
2022-10-02T08:02:30.387Z,11.66
2022-10-02T08:04:59.844Z,11.82
2022-10-02T08:07:28.023Z,11.78
2022-10-02T08:09:55.541Z,11.76
2022-10-02T08:12:26.315Z,11.83
2022-10-02T08:14:57.639Z,11.93
2022-10-02T08:17:49.858Z,11.91
2022-10-02T08:20:19.591Z,11.96
2022-10-02T08:22:56.227Z,12.02
2022-10-02T08:25:26.792Z,12.10
2022-10-02T08:27:53.631Z,12.20
2022-10-02T08:30:20.318Z,12.23
2022-10-02T08:32:50.742Z,12.22
2022-10-02T08:35:19.504Z,12.25
2022-10-02T08:38:10.045Z,12.30
2022-10-02T08:40:50.500Z,12.38
2022-10-02T08:43:35.078Z,12.46
2022-10-02T08:46:21.432Z,12.51
2022-10-02T08:49:03.053Z,12.52
2022-10-02T08:51:44.831Z,12.54
2022-10-02T08:54:52.877Z,12.54
2022-10-02T08:57:44.174Z,12.60
2022-10-02T09:00:20.359Z,12.63
2022-10-02T09:02:46.808Z,12.68
2022-10-02T09:05:39.569Z,12.77
2022-10-02T09:08:21.855Z,12.84
2022-10-02T09:11:07.273Z,12.81
2022-10-02T09:13:40.765Z,12.88
2022-10-02T09:16:07.434Z,12.85
2022-10-02T09:18:49.253Z,12.91
2022-10-02T09:21:25.682Z,13.02
2022-10-02T09:24:01.009Z,13.09
2022-10-02T09:26:43.660Z,13.15
2022-10-02T09:29:37.899Z,13.40
2022-10-02T09:32:10.647Z,13.48
2022-10-02T09:35:02.179Z,13.36
2022-10-02T09:37:53.588Z,13.48
2022-10-02T09:40:26.844Z,13.58
2022-10-02T09:43:17.358Z,13.68
2022-10-02T09:46:30.913Z,13.57
2022-10-02T09:49:14.730Z,13.77
2022-10-02T09:52:02.683Z,13.85
2022-10-02T09:54:32.285Z,13.76
2022-10-02T09:57:00.357Z,13.78
2022-10-02T10:00:08.393Z,13.93
2022-10-02T10:03:15.996Z,14.04
2022-10-02T10:05:42.517Z,14.48
2022-10-02T10:08:34.294Z,14.55
2022-10-02T10:11:10.606Z,14.69
2022-10-02T10:13:48.695Z,14.94
2022-10-02T10:16:34.477Z,14.89
2022-10-02T10:19:22.174Z,14.80
2022-10-02T10:22:04.953Z,14.57
2022-10-02T10:24:49.594Z,14.82
2022-10-02T10:27:30.078Z,14.84
2022-10-02T10:30:10.678Z,14.74
2022-10-02T10:33:00.251Z,14.85
2022-10-02T10:35:53.908Z,14.95
2022-10-02T10:38:49.585Z,14.77
2022-10-02T10:41:28.398Z,14.75
2022-10-02T10:44:10.339Z,14.89
2022-10-02T10:47:01.939Z,14.73
2022-10-02T10:50:02.309Z,14.62
2022-10-02T10:52:41.239Z,14.76
2022-10-02T10:55:29.706Z,15.09
2022-10-02T10:58:06.797Z,15.49
2022-10-02T11:00:51.703Z,15.83
2022-10-02T11:03:30.361Z,15.82
2022-10-02T11:06:20.884Z,15.64
2022-10-02T11:09:00.893Z,15.73
2022-10-02T11:11:39.776Z,15.76
2022-10-02T11:14:09.455Z,15.73
2022-10-02T11:16:38.867Z,15.61
2022-10-02T11:19:29.648Z,15.27
2022-10-02T11:22:13.181Z,15.43
2022-10-02T11:24:42.858Z,14.84
2022-10-02T11:27:31.201Z,14.52
2022-10-02T11:30:14.579Z,14.14
2022-10-02T11:33:02.413Z,14.03
2022-10-02T11:35:48.193Z,13.86
2022-10-02T11:38:26.093Z,13.73
2022-10-02T11:40:58.375Z,13.25
2022-10-02T11:43:34.029Z,13.17
2022-10-02T11:46:06.629Z,13.17
2022-10-02T11:48:57.388Z,13.07
2022-10-02T11:51:31.774Z,12.99
2022-10-02T11:53:59.579Z,13.10
2022-10-02T11:56:32.898Z,13.00
2022-10-02T11:59:28.380Z,12.86
2022-10-02T12:02:02.863Z,12.97
2022-10-02T12:04:49.566Z,13.01
2022-10-02T12:07:28.416Z,13.13
2022-10-02T12:10:17.022Z,13.27
2022-10-02T12:13:04.961Z,13.42
2022-10-02T12:15:59.986Z,13.52
2022-10-02T12:18:41.883Z,13.76
2022-10-02T12:21:45.546Z,13.93
2022-10-02T12:25:02.533Z,14.35
2022-10-02T12:27:36.769Z,14.47
2022-10-02T12:30:04.067Z,14.87
2022-10-02T12:33:15.490Z,15.40
2022-10-02T12:36:11.514Z,15.74
2022-10-02T12:38:52.308Z,16.20
2022-10-02T12:41:56.327Z,15.86
2022-10-02T12:44:38.043Z,15.86
2022-10-02T12:47:08.570Z,15.55
2022-10-02T12:49:45.687Z,15.53
2022-10-02T12:52:34.231Z,15.05
2022-10-02T12:55:50.458Z,14.51
2022-10-02T12:58:47.392Z,14.41
2022-10-02T13:01:49.729Z,14.29
2022-10-02T13:04:41.451Z,14.24
2022-10-02T13:07:33.643Z,14.17
2022-10-02T13:10:21.570Z,14.12
2022-10-02T13:13:02.378Z,13.91
2022-10-02T13:15:39.405Z,13.48
2022-10-02T13:18:21.091Z,13.09
2022-10-02T13:21:08.416Z,13.03
2022-10-02T13:23:55.252Z,12.89
2022-10-02T13:26:33.716Z,12.81
2022-10-02T13:29:10.747Z,12.84
2022-10-02T13:32:01.980Z,12.89
2022-10-02T13:34:48.702Z,13.08
2022-10-02T13:37:29.313Z,13.18
2022-10-02T13:40:19.514Z,13.22
2022-10-02T13:42:57.977Z,13.31
2022-10-02T13:45:34.396Z,13.26
2022-10-02T13:48:16.610Z,13.43
2022-10-02T13:50:43.181Z,13.42
2022-10-02T13:53:15.611Z,13.44
2022-10-02T13:55:48.096Z,13.47
2022-10-02T13:58:39.886Z,13.63
2022-10-02T14:01:22.418Z,13.67
2022-10-02T14:04:04.956Z,13.63
2022-10-02T14:06:47.506Z,13.64
2022-10-02T14:09:30.080Z,13.68
2022-10-02T14:12:05.346Z,13.64
2022-10-02T14:14:47.162Z,13.61
2022-10-02T14:17:58.402Z,13.52
2022-10-02T14:20:42.176Z,13.59
2022-10-02T14:23:22.913Z,13.56
2022-10-02T14:26:08.326Z,13.44
2022-10-02T14:29:08.551Z,13.55
2022-10-02T14:31:58.397Z,13.59
2022-10-02T14:35:02.219Z,13.64
2022-10-02T14:37:37.341Z,13.82
2022-10-02T14:40:17.527Z,13.89
2022-10-02T14:43:16.555Z,14.12
2022-10-02T14:46:03.194Z,14.04
2022-10-02T14:48:58.970Z,14.15
2022-10-02T14:51:52.015Z,14.34
2022-10-02T14:54:44.825Z,14.58
2022-10-02T14:57:36.676Z,14.58
2022-10-02T15:00:23.147Z,14.50
2022-10-02T15:02:55.846Z,14.37
2022-10-02T15:05:40.659Z,14.46
2022-10-02T15:08:15.844Z,14.35
2022-10-02T15:10:45.117Z,14.64
2022-10-02T15:13:36.516Z,14.55
2022-10-02T15:16:32.282Z,14.26
2022-10-02T15:19:07.298Z,14.20
2022-10-02T15:21:41.492Z,14.30
2022-10-02T15:24:29.520Z,14.35
2022-10-02T15:26:59.036Z,14.34
2022-10-02T15:29:29.729Z,14.43
2022-10-02T15:32:06.393Z,14.34
2022-10-02T15:34:38.484Z,14.16
2022-10-02T15:37:42.790Z,13.95
2022-10-02T15:40:27.226Z,13.94
2022-10-02T15:42:58.825Z,13.79
2022-10-02T15:45:50.323Z,13.50
2022-10-02T15:48:28.128Z,13.34
2022-10-02T15:50:58.599Z,13.23
2022-10-02T15:53:36.026Z,13.18
2022-10-02T15:56:18.074Z,13.13
2022-10-02T15:58:57.052Z,13.03
2022-10-02T16:01:45.344Z,12.92
2022-10-02T16:04:37.516Z,12.88
2022-10-02T16:07:31.005Z,12.71
2022-10-02T16:10:21.420Z,12.57
2022-10-02T16:12:51.180Z,12.56
2022-10-02T16:15:25.910Z,12.80
2022-10-02T16:18:16.310Z,12.90
2022-10-02T16:20:45.958Z,12.81
2022-10-02T16:23:28.394Z,12.72
2022-10-02T16:26:07.569Z,12.60
2022-10-02T16:29:04.729Z,12.52
2022-10-02T16:31:37.957Z,12.63
2022-10-02T16:34:24.035Z,12.57
2022-10-02T16:37:05.501Z,12.44
2022-10-02T16:39:59.906Z,12.39
2022-10-02T16:42:46.762Z,12.39
2022-10-02T16:45:28.556Z,12.42
2022-10-02T16:48:47.473Z,12.41
2022-10-02T16:52:05.058Z,12.39
2022-10-02T16:54:55.040Z,12.42
2022-10-02T16:57:29.564Z,12.38
2022-10-02T17:00:16.455Z,12.32
2022-10-02T17:02:47.811Z,12.29
2022-10-02T17:05:40.710Z,12.28
2022-10-02T17:08:20.164Z,12.20
2022-10-02T17:10:47.048Z,12.09
2022-10-02T17:13:29.504Z,12.13
2022-10-02T17:16:08.009Z,11.90
2022-10-02T17:18:45.659Z,11.75
2022-10-02T17:21:38.364Z,11.80
2022-10-02T17:24:14.295Z,11.76
2022-10-02T17:26:49.672Z,11.65
2022-10-02T17:29:26.708Z,11.55
2022-10-02T17:31:58.636Z,11.53
2022-10-02T17:34:32.236Z,11.60
2022-10-02T17:37:14.296Z,11.54
2022-10-02T17:39:52.833Z,11.47
2022-10-02T17:42:53.216Z,11.35
2022-10-02T17:45:36.643Z,11.45
2022-10-02T17:48:39.529Z,11.51
2022-10-02T17:51:52.528Z,11.48
2022-10-02T17:54:45.830Z,11.46
2022-10-02T17:57:15.481Z,11.50
2022-10-02T18:00:34.933Z,11.52
2022-10-02T18:03:43.290Z,11.35
2022-10-02T18:06:47.658Z,11.37
2022-10-02T18:09:35.339Z,11.28
2022-10-02T18:12:26.861Z,11.19
2022-10-02T18:15:26.170Z,11.19
2022-10-02T18:18:16.930Z,11.07
2022-10-02T18:20:54.921Z,10.87
2022-10-02T18:23:26.863Z,10.73
2022-10-02T18:25:59.548Z,10.63
2022-10-02T18:29:05.155Z,10.60
2022-10-02T18:31:56.290Z,10.73
2022-10-02T18:34:43.532Z,10.75
2022-10-02T18:37:29.516Z,10.82
2022-10-02T18:40:04.860Z,10.73
2022-10-02T18:42:53.425Z,10.79
2022-10-02T18:45:27.598Z,10.97
2022-10-02T18:47:57.425Z,11.03
2022-10-02T18:50:48.594Z,11.07
2022-10-02T18:53:48.453Z,11.16
2022-10-02T18:56:41.270Z,11.26
2022-10-02T18:59:26.519Z,11.26
2022-10-02T19:02:00.210Z,11.33
2022-10-02T19:04:51.823Z,11.38
2022-10-02T19:07:22.655Z,11.33
2022-10-02T19:09:52.934Z,11.23
2022-10-02T19:12:24.129Z,11.33
2022-10-02T19:14:56.073Z,11.26
2022-10-02T19:17:32.674Z,11.14
2022-10-02T19:19:59.323Z,11.14
2022-10-02T19:22:31.782Z,11.05
2022-10-02T19:25:15.862Z,11.08
2022-10-02T19:27:48.599Z,10.96
2022-10-02T19:30:26.961Z,10.91
2022-10-02T19:32:55.479Z,10.85
2022-10-02T19:35:34.577Z,10.85
2022-10-02T19:38:09.068Z,10.82
2022-10-02T19:40:36.435Z,10.78
2022-10-02T19:43:16.335Z,10.74
2022-10-02T19:45:44.456Z,10.77
2022-10-02T19:48:17.222Z,10.80
2022-10-02T19:50:51.364Z,10.75
2022-10-02T19:53:30.107Z,10.77
2022-10-02T19:55:59.252Z,10.85
2022-10-02T19:58:37.856Z,10.86
2022-10-02T20:01:06.744Z,10.84
2022-10-02T20:03:33.590Z,10.76
2022-10-02T20:06:09.401Z,10.79
2022-10-02T20:08:42.399Z,10.69
2022-10-02T20:11:14.632Z,10.63
2022-10-02T20:13:44.978Z,10.72
2022-10-02T20:16:43.123Z,10.75
2022-10-02T20:19:15.603Z,10.69
2022-10-02T20:21:45.018Z,10.68
2022-10-02T20:24:54.670Z,10.69
2022-10-02T20:27:45.714Z,10.66
2022-10-02T20:30:17.746Z,10.76
2022-10-02T20:32:50.171Z,10.77
2022-10-02T20:35:29.303Z,10.72
2022-10-02T20:37:57.999Z,10.83
2022-10-02T20:40:26.066Z,10.85
2022-10-02T20:43:33.018Z,10.79
2022-10-02T20:46:26.858Z,10.94
2022-10-02T20:49:20.458Z,10.86
2022-10-02T20:52:08.945Z,10.88
2022-10-02T20:54:51.441Z,10.83
2022-10-02T20:57:49.642Z,10.79
2022-10-02T21:00:25.015Z,10.76
2022-10-02T21:03:13.427Z,10.66
2022-10-02T21:06:10.916Z,10.76
2022-10-02T21:08:56.898Z,10.70
2022-10-02T21:11:26.498Z,10.66
2022-10-02T21:14:12.302Z,10.72
2022-10-02T21:17:05.168Z,10.83
2022-10-02T21:20:03.068Z,10.70
2022-10-02T21:22:46.458Z,10.85
2022-10-02T21:25:40.332Z,10.83
2022-10-02T21:28:41.318Z,10.81
2022-10-02T21:31:56.433Z,10.84
2022-10-02T21:35:16.815Z,10.90
2022-10-02T21:38:06.200Z,10.89
2022-10-02T21:40:38.745Z,10.98
2022-10-02T21:43:27.177Z,11.06
2022-10-02T21:46:09.220Z,11.05
2022-10-02T21:49:04.260Z,11.04
2022-10-02T21:51:38.085Z,10.97
2022-10-02T21:54:07.863Z,10.98
2022-10-02T21:56:58.946Z,10.97
2022-10-02T21:59:47.423Z,10.89
2022-10-02T22:02:20.071Z,10.97
2022-10-02T22:05:01.461Z,10.88
2022-10-02T22:07:51.293Z,10.92
2022-10-02T22:10:49.225Z,10.92
2022-10-02T22:13:37.960Z,10.91
2022-10-02T22:16:07.707Z,10.96
2022-10-02T22:19:01.001Z,10.90
2022-10-02T22:21:38.270Z,10.83
2022-10-02T22:24:17.072Z,10.93
2022-10-02T22:26:51.938Z,10.90
2022-10-02T22:29:46.651Z,10.92
2022-10-02T22:32:50.664Z,10.82
2022-10-02T22:35:49.518Z,10.71
2022-10-02T22:38:16.077Z,10.72
2022-10-02T22:41:01.350Z,10.70
2022-10-02T22:43:37.474Z,10.60
2022-10-02T22:46:20.205Z,10.64
2022-10-02T22:49:05.033Z,10.54
2022-10-02T22:51:44.302Z,10.59
2022-10-02T22:54:14.178Z,10.60
2022-10-02T22:56:49.028Z,10.59
2022-10-02T22:59:29.759Z,10.59
2022-10-02T23:02:04.344Z,10.58
2022-10-02T23:04:40.389Z,10.52
2022-10-02T23:07:12.537Z,10.45
2022-10-02T23:10:01.502Z,10.54
2022-10-02T23:12:39.599Z,10.56
2022-10-02T23:15:39.854Z,10.62
2022-10-02T23:18:20.679Z,10.47
2022-10-02T23:21:02.523Z,10.51
2022-10-02T23:23:53.370Z,10.45
2022-10-02T23:26:58.852Z,10.57
2022-10-02T23:29:45.558Z,10.62
2022-10-02T23:32:21.834Z,10.53
2022-10-02T23:35:00.105Z,10.50
2022-10-02T23:37:26.701Z,10.47
2022-10-02T23:40:07.759Z,10.49
2022-10-02T23:42:39.542Z,10.47
2022-10-02T23:45:27.816Z,10.53
2022-10-02T23:47:58.331Z,10.41
2022-10-02T23:50:42.756Z,10.31
2022-10-02T23:53:35.025Z,10.34
2022-10-02T23:56:27.806Z,10.34
2022-10-02T23:58:57.373Z,10.29
